sensor_id;sensor_type;location;lat;lon;timestamp;P1;durP1;ratioP1;P2;durP2;ratioP2
3085;SDS011;52812;48.960;9.108;2023-05-07T00:00:37;6.43;;;4.53;;
3085;SDS011;52812;48.960;9.108;2023-05-07T00:03:03;6.30;;;4.60;;
3085;SDS011;52812;48.960;9.108;2023-05-07T00:05:28;6.77;;;4.50;;
3085;SDS011;52812;48.960;9.108;2023-05-07T00:07:54;5.90;;;4.83;;
3085;SDS011;52812;48.960;9.108;2023-05-07T00:10:20;5.73;;;4.80;;
3085;SDS011;52812;48.960;9.108;2023-05-07T00:12:46;5.47;;;4.70;;
3085;SDS011;52812;48.960;9.108;2023-05-07T00:15:11;6.67;;;5.23;;
3085;SDS011;52812;48.960;9.108;2023-05-07T00:17:37;6.13;;;4.97;;
3085;SDS011;52812;48.960;9.108;2023-05-07T00:20:03;6.53;;;5.40;;
3085;SDS011;52812;48.960;9.108;2023-05-07T00:22:30;7.20;;;4.63;;
3085;SDS011;52812;48.960;9.108;2023-05-07T00:24:57;7.87;;;4.97;;
3085;SDS011;52812;48.960;9.108;2023-05-07T00:27:23;6.60;;;4.80;;
3085;SDS011;52812;48.960;9.108;2023-05-07T00:29:49;6.03;;;4.70;;
3085;SDS011;52812;48.960;9.108;2023-05-07T00:32:15;5.83;;;4.70;;
3085;SDS011;52812;48.960;9.108;2023-05-07T00:34:40;6.17;;;4.73;;
3085;SDS011;52812;48.960;9.108;2023-05-07T00:37:06;8.20;;;5.30;;
3085;SDS011;52812;48.960;9.108;2023-05-07T00:39:32;6.30;;;5.47;;
3085;SDS011;52812;48.960;9.108;2023-05-07T00:41:58;8.00;;;5.53;;
3085;SDS011;52812;48.960;9.108;2023-05-07T00:44:25;6.17;;;4.83;;
3085;SDS011;52812;48.960;9.108;2023-05-07T00:46:51;5.90;;;5.23;;
3085;SDS011;52812;48.960;9.108;2023-05-07T00:49:17;7.83;;;6.17;;
3085;SDS011;52812;48.960;9.108;2023-05-07T00:51:44;6.30;;;5.43;;
3085;SDS011;52812;48.960;9.108;2023-05-07T00:54:10;9.50;;;5.53;;
3085;SDS011;52812;48.960;9.108;2023-05-07T00:56:36;6.90;;;5.63;;
3085;SDS011;52812;48.960;9.108;2023-05-07T00:59:02;6.33;;;5.33;;
3085;SDS011;52812;48.960;9.108;2023-05-07T01:01:28;8.03;;;5.60;;
3085;SDS011;52812;48.960;9.108;2023-05-07T01:03:54;6.00;;;5.40;;
3085;SDS011;52812;48.960;9.108;2023-05-07T01:06:20;7.03;;;4.87;;
3085;SDS011;52812;48.960;9.108;2023-05-07T01:08:49;6.40;;;4.90;;
3085;SDS011;52812;48.960;9.108;2023-05-07T01:11:16;5.80;;;5.17;;
3085;SDS011;52812;48.960;9.108;2023-05-07T01:13:44;5.20;;;4.67;;
3085;SDS011;52812;48.960;9.108;2023-05-07T01:16:10;5.50;;;4.63;;
3085;SDS011;52812;48.960;9.108;2023-05-07T01:18:36;7.47;;;5.10;;
3085;SDS011;52812;48.960;9.108;2023-05-07T01:21:02;6.30;;;5.37;;
3085;SDS011;52812;48.960;9.108;2023-05-07T01:23:29;8.30;;;5.00;;
3085;SDS011;52812;48.960;9.108;2023-05-07T01:25:55;7.70;;;5.23;;
3085;SDS011;52812;48.960;9.108;2023-05-07T01:28:21;7.57;;;5.87;;
3085;SDS011;52812;48.960;9.108;2023-05-07T01:31:00;12.20;;;6.23;;
3085;SDS011;52812;48.960;9.108;2023-05-07T01:33:29;6.47;;;5.60;;
3085;SDS011;52812;48.960;9.108;2023-05-07T01:36:00;8.40;;;5.70;;
3085;SDS011;52812;48.960;9.108;2023-05-07T01:38:28;5.80;;;4.87;;
3085;SDS011;52812;48.960;9.108;2023-05-07T01:40:55;5.83;;;4.70;;
3085;SDS011;52812;48.960;9.108;2023-05-07T01:43:21;6.53;;;5.23;;
3085;SDS011;52812;48.960;9.108;2023-05-07T01:45:46;7.80;;;5.83;;
3085;SDS011;52812;48.960;9.108;2023-05-07T01:48:14;8.20;;;5.73;;
3085;SDS011;52812;48.960;9.108;2023-05-07T01:50:40;7.27;;;5.40;;
3085;SDS011;52812;48.960;9.108;2023-05-07T01:53:07;8.03;;;5.27;;
3085;SDS011;52812;48.960;9.108;2023-05-07T01:55:33;7.53;;;5.67;;
3085;SDS011;52812;48.960;9.108;2023-05-07T01:57:59;9.17;;;5.40;;
3085;SDS011;52812;48.960;9.108;2023-05-07T02:00:24;6.20;;;5.00;;
3085;SDS011;52812;48.960;9.108;2023-05-07T02:02:50;8.13;;;6.07;;
3085;SDS011;52812;48.960;9.108;2023-05-07T02:05:17;8.93;;;5.30;;
3085;SDS011;52812;48.960;9.108;2023-05-07T02:07:43;10.87;;;5.30;;
3085;SDS011;52812;48.960;9.108;2023-05-07T02:10:09;9.67;;;6.03;;
3085;SDS011;52812;48.960;9.108;2023-05-07T02:12:34;8.00;;;5.80;;
3085;SDS011;52812;48.960;9.108;2023-05-07T02:15:00;8.23;;;5.10;;
3085;SDS011;52812;48.960;9.108;2023-05-07T02:17:26;8.00;;;5.00;;
3085;SDS011;52812;48.960;9.108;2023-05-07T02:19:51;6.23;;;4.87;;
3085;SDS011;52812;48.960;9.108;2023-05-07T02:22:17;5.80;;;4.77;;
3085;SDS011;52812;48.960;9.108;2023-05-07T02:24:43;6.53;;;4.80;;
3085;SDS011;52812;48.960;9.108;2023-05-07T02:27:09;6.60;;;5.90;;
3085;SDS011;52812;48.960;9.108;2023-05-07T02:29:35;6.17;;;5.57;;
3085;SDS011;52812;48.960;9.108;2023-05-07T02:32:00;7.30;;;5.70;;
3085;SDS011;52812;48.960;9.108;2023-05-07T02:34:26;7.20;;;5.67;;
3085;SDS011;52812;48.960;9.108;2023-05-07T02:36:52;7.87;;;6.07;;
3085;SDS011;52812;48.960;9.108;2023-05-07T02:39:17;10.00;;;6.67;;
3085;SDS011;52812;48.960;9.108;2023-05-07T02:41:43;9.53;;;6.30;;
3085;SDS011;52812;48.960;9.108;2023-05-07T02:44:08;7.40;;;5.97;;
3085;SDS011;52812;48.960;9.108;2023-05-07T02:46:34;6.60;;;5.43;;
3085;SDS011;52812;48.960;9.108;2023-05-07T02:49:00;7.27;;;5.00;;
3085;SDS011;52812;48.960;9.108;2023-05-07T02:51:25;5.90;;;5.30;;
3085;SDS011;52812;48.960;9.108;2023-05-07T02:53:52;5.77;;;4.80;;
3085;SDS011;52812;48.960;9.108;2023-05-07T02:56:17;8.73;;;5.43;;
3085;SDS011;52812;48.960;9.108;2023-05-07T02:58:43;8.00;;;5.40;;
3085;SDS011;52812;48.960;9.108;2023-05-07T03:03:47;8.30;;;5.33;;
3085;SDS011;52812;48.960;9.108;2023-05-07T03:06:12;8.03;;;6.20;;
3085;SDS011;52812;48.960;9.108;2023-05-07T03:08:38;9.03;;;6.50;;
3085;SDS011;52812;48.960;9.108;2023-05-07T03:11:04;8.57;;;6.97;;
3085;SDS011;52812;48.960;9.108;2023-05-07T03:13:29;8.80;;;6.50;;
3085;SDS011;52812;48.960;9.108;2023-05-07T03:15:55;7.20;;;6.20;;
3085;SDS011;52812;48.960;9.108;2023-05-07T03:18:21;6.53;;;5.43;;
3085;SDS011;52812;48.960;9.108;2023-05-07T03:20:48;6.37;;;5.33;;
3085;SDS011;52812;48.960;9.108;2023-05-07T03:23:13;7.50;;;5.47;;
3085;SDS011;52812;48.960;9.108;2023-05-07T03:25:39;7.60;;;6.10;;
3085;SDS011;52812;48.960;9.108;2023-05-07T03:28:04;9.03;;;5.23;;
3085;SDS011;52812;48.960;9.108;2023-05-07T03:30:30;8.67;;;6.57;;
3085;SDS011;52812;48.960;9.108;2023-05-07T03:32:56;7.83;;;6.10;;
3085;SDS011;52812;48.960;9.108;2023-05-07T03:35:21;6.63;;;5.63;;
3085;SDS011;52812;48.960;9.108;2023-05-07T03:37:47;6.47;;;5.77;;
3085;SDS011;52812;48.960;9.108;2023-05-07T03:40:13;7.27;;;5.70;;
3085;SDS011;52812;48.960;9.108;2023-05-07T03:42:38;6.87;;;5.37;;
3085;SDS011;52812;48.960;9.108;2023-05-07T03:45:04;6.00;;;5.20;;
3085;SDS011;52812;48.960;9.108;2023-05-07T03:47:31;9.93;;;6.17;;
3085;SDS011;52812;48.960;9.108;2023-05-07T03:49:56;7.33;;;5.63;;
3085;SDS011;52812;48.960;9.108;2023-05-07T03:52:22;9.97;;;6.60;;
3085;SDS011;52812;48.960;9.108;2023-05-07T03:54:51;10.00;;;7.40;;
3085;SDS011;52812;48.960;9.108;2023-05-07T03:57:17;10.47;;;6.80;;
3085;SDS011;52812;48.960;9.108;2023-05-07T03:59:43;8.60;;;6.37;;
3085;SDS011;52812;48.960;9.108;2023-05-07T04:02:08;8.03;;;6.30;;
3085;SDS011;52812;48.960;9.108;2023-05-07T04:04:34;7.93;;;6.83;;
3085;SDS011;52812;48.960;9.108;2023-05-07T04:07:00;8.73;;;6.40;;
3085;SDS011;52812;48.960;9.108;2023-05-07T04:09:25;6.83;;;5.80;;
3085;SDS011;52812;48.960;9.108;2023-05-07T04:11:51;8.70;;;7.20;;
3085;SDS011;52812;48.960;9.108;2023-05-07T04:14:16;9.00;;;6.83;;
3085;SDS011;52812;48.960;9.108;2023-05-07T04:16:42;13.00;;;7.20;;
3085;SDS011;52812;48.960;9.108;2023-05-07T04:19:08;9.40;;;7.60;;
3085;SDS011;52812;48.960;9.108;2023-05-07T04:21:33;9.83;;;7.30;;
3085;SDS011;52812;48.960;9.108;2023-05-07T04:23:59;9.13;;;6.93;;
3085;SDS011;52812;48.960;9.108;2023-05-07T04:26:25;9.60;;;7.20;;
3085;SDS011;52812;48.960;9.108;2023-05-07T04:28:50;8.07;;;6.43;;
3085;SDS011;52812;48.960;9.108;2023-05-07T04:31:16;7.37;;;6.33;;
3085;SDS011;52812;48.960;9.108;2023-05-07T04:33:41;9.00;;;5.87;;
3085;SDS011;52812;48.960;9.108;2023-05-07T04:36:07;8.03;;;7.00;;
3085;SDS011;52812;48.960;9.108;2023-05-07T04:38:33;8.57;;;6.90;;
3085;SDS011;52812;48.960;9.108;2023-05-07T04:41:05;8.60;;;6.80;;
3085;SDS011;52812;48.960;9.108;2023-05-07T04:43:31;9.70;;;6.87;;
3085;SDS011;52812;48.960;9.108;2023-05-07T04:45:57;11.33;;;7.10;;
3085;SDS011;52812;48.960;9.108;2023-05-07T04:48:23;8.53;;;6.00;;
3085;SDS011;52812;48.960;9.108;2023-05-07T04:50:49;7.70;;;5.97;;
3085;SDS011;52812;48.960;9.108;2023-05-07T04:53:16;9.43;;;6.33;;
3085;SDS011;52812;48.960;9.108;2023-05-07T04:55:42;8.13;;;5.90;;
3085;SDS011;52812;48.960;9.108;2023-05-07T04:58:08;6.73;;;5.30;;
3085;SDS011;52812;48.960;9.108;2023-05-07T05:00:34;8.83;;;5.60;;
3085;SDS011;52812;48.960;9.108;2023-05-07T05:03:00;7.10;;;6.13;;
3085;SDS011;52812;48.960;9.108;2023-05-07T05:05:25;8.60;;;5.97;;
3085;SDS011;52812;48.960;9.108;2023-05-07T05:07:51;7.83;;;6.30;;
3085;SDS011;52812;48.960;9.108;2023-05-07T05:10:17;10.20;;;5.57;;
3085;SDS011;52812;48.960;9.108;2023-05-07T05:12:43;8.43;;;6.50;;
3085;SDS011;52812;48.960;9.108;2023-05-07T05:15:10;7.03;;;5.87;;
3085;SDS011;52812;48.960;9.108;2023-05-07T05:17:37;6.53;;;5.70;;
3085;SDS011;52812;48.960;9.108;2023-05-07T05:20:04;10.20;;;5.90;;
3085;SDS011;52812;48.960;9.108;2023-05-07T05:22:30;8.33;;;6.30;;
3085;SDS011;52812;48.960;9.108;2023-05-07T05:24:57;7.80;;;6.20;;
3085;SDS011;52812;48.960;9.108;2023-05-07T05:27:22;7.50;;;6.47;;
3085;SDS011;52812;48.960;9.108;2023-05-07T05:29:48;7.33;;;5.90;;
3085;SDS011;52812;48.960;9.108;2023-05-07T05:32:14;7.00;;;5.87;;
3085;SDS011;52812;48.960;9.108;2023-05-07T05:34:40;7.80;;;5.50;;
3085;SDS011;52812;48.960;9.108;2023-05-07T05:37:05;7.50;;;5.97;;
3085;SDS011;52812;48.960;9.108;2023-05-07T05:39:31;8.87;;;6.30;;
3085;SDS011;52812;48.960;9.108;2023-05-07T05:41:57;7.30;;;6.00;;
3085;SDS011;52812;48.960;9.108;2023-05-07T05:44:22;6.37;;;5.73;;
3085;SDS011;52812;48.960;9.108;2023-05-07T05:46:48;6.20;;;5.00;;
3085;SDS011;52812;48.960;9.108;2023-05-07T05:49:14;8.50;;;4.90;;
3085;SDS011;52812;48.960;9.108;2023-05-07T05:51:40;7.93;;;5.00;;
3085;SDS011;52812;48.960;9.108;2023-05-07T05:54:06;5.50;;;4.73;;
3085;SDS011;52812;48.960;9.108;2023-05-07T05:56:31;5.43;;;4.67;;
3085;SDS011;52812;48.960;9.108;2023-05-07T05:58:57;6.07;;;5.30;;
3085;SDS011;52812;48.960;9.108;2023-05-07T06:01:23;5.13;;;4.63;;
3085;SDS011;52812;48.960;9.108;2023-05-07T06:03:48;5.90;;;4.83;;
3085;SDS011;52812;48.960;9.108;2023-05-07T06:06:14;6.50;;;5.53;;
3085;SDS011;52812;48.960;9.108;2023-05-07T06:08:40;5.10;;;4.60;;
3085;SDS011;52812;48.960;9.108;2023-05-07T06:11:06;5.00;;;4.53;;
3085;SDS011;52812;48.960;9.108;2023-05-07T06:13:31;5.13;;;4.73;;
3085;SDS011;52812;48.960;9.108;2023-05-07T06:15:57;5.00;;;4.50;;
3085;SDS011;52812;48.960;9.108;2023-05-07T06:18:23;5.37;;;4.87;;
3085;SDS011;52812;48.960;9.108;2023-05-07T06:20:50;5.87;;;5.00;;
3085;SDS011;52812;48.960;9.108;2023-05-07T06:23:16;5.40;;;4.90;;
3085;SDS011;52812;48.960;9.108;2023-05-07T06:25:42;5.33;;;4.53;;
3085;SDS011;52812;48.960;9.108;2023-05-07T06:28:10;6.67;;;4.97;;
3085;SDS011;52812;48.960;9.108;2023-05-07T06:30:36;5.87;;;5.00;;
3085;SDS011;52812;48.960;9.108;2023-05-07T06:33:02;7.80;;;5.10;;
3085;SDS011;52812;48.960;9.108;2023-05-07T06:35:27;6.93;;;5.23;;
3085;SDS011;52812;48.960;9.108;2023-05-07T06:37:53;5.73;;;4.83;;
3085;SDS011;52812;48.960;9.108;2023-05-07T06:40:18;4.43;;;3.80;;
3085;SDS011;52812;48.960;9.108;2023-05-07T06:42:44;6.13;;;5.23;;
3085;SDS011;52812;48.960;9.108;2023-05-07T06:45:10;5.03;;;4.53;;
3085;SDS011;52812;48.960;9.108;2023-05-07T06:47:36;5.90;;;4.67;;
3085;SDS011;52812;48.960;9.108;2023-05-07T06:50:01;5.27;;;4.70;;
3085;SDS011;52812;48.960;9.108;2023-05-07T06:52:27;6.20;;;4.57;;
3085;SDS011;52812;48.960;9.108;2023-05-07T06:54:53;6.97;;;4.60;;
3085;SDS011;52812;48.960;9.108;2023-05-07T06:57:18;4.30;;;3.90;;
3085;SDS011;52812;48.960;9.108;2023-05-07T06:59:44;6.70;;;5.00;;
3085;SDS011;52812;48.960;9.108;2023-05-07T07:02:09;5.03;;;4.53;;
3085;SDS011;52812;48.960;9.108;2023-05-07T07:04:35;5.90;;;4.73;;
3085;SDS011;52812;48.960;9.108;2023-05-07T07:07:01;5.80;;;4.40;;
3085;SDS011;52812;48.960;9.108;2023-05-07T07:09:26;5.63;;;4.93;;
3085;SDS011;52812;48.960;9.108;2023-05-07T07:11:52;4.53;;;4.13;;
3085;SDS011;52812;48.960;9.108;2023-05-07T07:14:17;4.70;;;3.70;;
3085;SDS011;52812;48.960;9.108;2023-05-07T07:16:43;4.73;;;4.27;;
3085;SDS011;52812;48.960;9.108;2023-05-07T07:19:09;4.47;;;4.07;;
3085;SDS011;52812;48.960;9.108;2023-05-07T07:21:34;4.30;;;3.90;;
3085;SDS011;52812;48.960;9.108;2023-05-07T07:24:00;3.97;;;3.67;;
3085;SDS011;52812;48.960;9.108;2023-05-07T07:26:26;4.47;;;4.07;;
3085;SDS011;52812;48.960;9.108;2023-05-07T07:28:51;3.67;;;3.37;;
3085;SDS011;52812;48.960;9.108;2023-05-07T07:31:17;4.30;;;3.93;;
3085;SDS011;52812;48.960;9.108;2023-05-07T07:33:42;4.10;;;3.70;;
3085;SDS011;52812;48.960;9.108;2023-05-07T07:36:09;3.80;;;3.50;;
3085;SDS011;52812;48.960;9.108;2023-05-07T07:38:35;3.90;;;3.23;;
3085;SDS011;52812;48.960;9.108;2023-05-07T07:41:01;3.70;;;3.40;;
3085;SDS011;52812;48.960;9.108;2023-05-07T07:43:26;4.20;;;3.80;;
3085;SDS011;52812;48.960;9.108;2023-05-07T07:45:52;3.60;;;3.30;;
3085;SDS011;52812;48.960;9.108;2023-05-07T07:48:18;4.23;;;3.77;;
3085;SDS011;52812;48.960;9.108;2023-05-07T07:50:44;4.50;;;4.10;;
3085;SDS011;52812;48.960;9.108;2023-05-07T07:53:09;5.23;;;4.17;;
3085;SDS011;52812;48.960;9.108;2023-05-07T07:55:38;3.73;;;3.43;;
3085;SDS011;52812;48.960;9.108;2023-05-07T07:58:05;4.10;;;3.70;;
3085;SDS011;52812;48.960;9.108;2023-05-07T08:00:30;3.93;;;3.60;;
3085;SDS011;52812;48.960;9.108;2023-05-07T08:02:56;4.10;;;3.70;;
3085;SDS011;52812;48.960;9.108;2023-05-07T08:05:22;3.97;;;3.57;;
3085;SDS011;52812;48.960;9.108;2023-05-07T08:07:48;5.07;;;3.60;;
3085;SDS011;52812;48.960;9.108;2023-05-07T08:10:18;4.50;;;3.53;;
3085;SDS011;52812;48.960;9.108;2023-05-07T08:12:47;3.50;;;3.20;;
3085;SDS011;52812;48.960;9.108;2023-05-07T08:15:14;3.23;;;2.93;;
3085;SDS011;52812;48.960;9.108;2023-05-07T08:17:39;3.57;;;3.00;;
3085;SDS011;52812;48.960;9.108;2023-05-07T08:20:05;3.97;;;3.37;;
3085;SDS011;52812;48.960;9.108;2023-05-07T08:22:32;5.30;;;3.47;;
3085;SDS011;52812;48.960;9.108;2023-05-07T08:24:59;4.10;;;3.43;;
3085;SDS011;52812;48.960;9.108;2023-05-07T08:27:25;4.77;;;4.33;;
3085;SDS011;52812;48.960;9.108;2023-05-07T08:29:51;3.63;;;3.23;;
3085;SDS011;52812;48.960;9.108;2023-05-07T08:32:16;3.50;;;3.20;;
3085;SDS011;52812;48.960;9.108;2023-05-07T08:34:42;3.83;;;3.53;;
3085;SDS011;52812;48.960;9.108;2023-05-07T08:37:07;4.13;;;3.73;;
3085;SDS011;52812;48.960;9.108;2023-05-07T08:39:33;4.03;;;3.40;;
3085;SDS011;52812;48.960;9.108;2023-05-07T08:42:00;4.50;;;3.47;;
3085;SDS011;52812;48.960;9.108;2023-05-07T08:44:29;3.63;;;3.33;;
3085;SDS011;52812;48.960;9.108;2023-05-07T08:46:59;4.03;;;3.67;;
3085;SDS011;52812;48.960;9.108;2023-05-07T08:49:26;3.80;;;3.37;;
3085;SDS011;52812;48.960;9.108;2023-05-07T08:51:52;4.23;;;3.80;;
3085;SDS011;52812;48.960;9.108;2023-05-07T08:54:18;4.13;;;3.73;;
3085;SDS011;52812;48.960;9.108;2023-05-07T08:56:45;3.90;;;3.40;;
3085;SDS011;52812;48.960;9.108;2023-05-07T08:59:11;4.30;;;3.90;;
3085;SDS011;52812;48.960;9.108;2023-05-07T09:01:36;3.40;;;3.07;;
3085;SDS011;52812;48.960;9.108;2023-05-07T09:04:03;3.67;;;3.30;;
3085;SDS011;52812;48.960;9.108;2023-05-07T09:06:30;3.43;;;3.13;;
3085;SDS011;52812;48.960;9.108;2023-05-07T09:08:56;3.83;;;3.53;;
3085;SDS011;52812;48.960;9.108;2023-05-07T09:11:23;4.10;;;3.47;;
3085;SDS011;52812;48.960;9.108;2023-05-07T09:13:53;4.17;;;3.53;;
3085;SDS011;52812;48.960;9.108;2023-05-07T09:16:20;4.33;;;3.60;;
3085;SDS011;52812;48.960;9.108;2023-05-07T09:18:47;4.50;;;3.60;;
3085;SDS011;52812;48.960;9.108;2023-05-07T09:21:15;4.90;;;3.97;;
3085;SDS011;52812;48.960;9.108;2023-05-07T09:23:42;4.53;;;3.60;;
3085;SDS011;52812;48.960;9.108;2023-05-07T09:26:07;4.17;;;3.77;;
3085;SDS011;52812;48.960;9.108;2023-05-07T09:28:39;3.80;;;3.50;;
3085;SDS011;52812;48.960;9.108;2023-05-07T09:31:06;4.37;;;3.97;;
3085;SDS011;52812;48.960;9.108;2023-05-07T09:33:32;3.80;;;3.17;;
3085;SDS011;52812;48.960;9.108;2023-05-07T09:35:58;4.07;;;3.67;;
3085;SDS011;52812;48.960;9.108;2023-05-07T09:38:26;3.60;;;3.30;;
3085;SDS011;52812;48.960;9.108;2023-05-07T09:41:09;4.17;;;3.77;;
3085;SDS011;52812;48.960;9.108;2023-05-07T09:43:38;4.47;;;4.07;;
3085;SDS011;52812;48.960;9.108;2023-05-07T09:46:12;3.83;;;3.43;;
3085;SDS011;52812;48.960;9.108;2023-05-07T09:48:39;4.00;;;3.60;;
3085;SDS011;52812;48.960;9.108;2023-05-07T09:51:25;5.77;;;3.27;;
3085;SDS011;52812;48.960;9.108;2023-05-07T09:53:54;4.40;;;4.00;;
3085;SDS011;52812;48.960;9.108;2023-05-07T09:56:22;3.87;;;3.57;;
3085;SDS011;52812;48.960;9.108;2023-05-07T09:58:49;3.90;;;3.50;;
3085;SDS011;52812;48.960;9.108;2023-05-07T10:01:17;3.90;;;3.50;;
3085;SDS011;52812;48.960;9.108;2023-05-07T10:03:46;5.20;;;4.00;;
3085;SDS011;52812;48.960;9.108;2023-05-07T10:06:14;4.17;;;3.77;;
3085;SDS011;52812;48.960;9.108;2023-05-07T10:08:42;4.50;;;3.60;;
3085;SDS011;52812;48.960;9.108;2023-05-07T10:11:08;4.43;;;3.40;;
3085;SDS011;52812;48.960;9.108;2023-05-07T10:13:34;5.20;;;3.60;;
3085;SDS011;52812;48.960;9.108;2023-05-07T10:16:02;4.43;;;3.87;;
3085;SDS011;52812;48.960;9.108;2023-05-07T10:18:30;3.83;;;3.47;;
3085;SDS011;52812;48.960;9.108;2023-05-07T10:21:00;4.60;;;3.47;;
3085;SDS011;52812;48.960;9.108;2023-05-07T10:23:31;4.43;;;4.00;;
3085;SDS011;52812;48.960;9.108;2023-05-07T10:25:58;4.30;;;3.53;;
3085;SDS011;52812;48.960;9.108;2023-05-07T10:28:27;3.67;;;3.30;;
3085;SDS011;52812;48.960;9.108;2023-05-07T10:33:30;4.27;;;3.53;;
3085;SDS011;52812;48.960;9.108;2023-05-07T10:36:00;4.00;;;3.60;;
3085;SDS011;52812;48.960;9.108;2023-05-07T10:38:29;5.43;;;3.87;;
3085;SDS011;52812;48.960;9.108;2023-05-07T10:40:55;4.17;;;3.77;;
3085;SDS011;52812;48.960;9.108;2023-05-07T10:43:21;4.10;;;3.70;;
3085;SDS011;52812;48.960;9.108;2023-05-07T10:46:21;3.90;;;3.50;;
3085;SDS011;52812;48.960;9.108;2023-05-07T10:51:31;3.80;;;3.40;;
3085;SDS011;52812;48.960;9.108;2023-05-07T10:56:35;5.30;;;3.53;;
3085;SDS011;52812;48.960;9.108;2023-05-07T11:02:04;3.80;;;3.30;;
3085;SDS011;52812;48.960;9.108;2023-05-07T11:04:31;3.60;;;3.30;;
3085;SDS011;52812;48.960;9.108;2023-05-07T11:15:07;3.80;;;3.40;;
3085;SDS011;52812;48.960;9.108;2023-05-07T11:17:53;4.87;;;3.67;;
3085;SDS011;52812;48.960;9.108;2023-05-07T11:20:18;3.67;;;3.13;;
3085;SDS011;52812;48.960;9.108;2023-05-07T11:22:45;3.73;;;3.33;;
3085;SDS011;52812;48.960;9.108;2023-05-07T11:25:11;4.03;;;3.53;;
3085;SDS011;52812;48.960;9.108;2023-05-07T11:27:44;3.50;;;3.20;;
3085;SDS011;52812;48.960;9.108;2023-05-07T11:30:10;3.90;;;3.50;;
3085;SDS011;52812;48.960;9.108;2023-05-07T11:32:42;3.50;;;3.20;;
3085;SDS011;52812;48.960;9.108;2023-05-07T11:35:08;3.50;;;3.17;;
3085;SDS011;52812;48.960;9.108;2023-05-07T11:37:33;3.33;;;3.03;;
3085;SDS011;52812;48.960;9.108;2023-05-07T11:40:03;3.07;;;2.80;;
3085;SDS011;52812;48.960;9.108;2023-05-07T11:42:34;3.13;;;2.90;;
3085;SDS011;52812;48.960;9.108;2023-05-07T11:45:02;3.90;;;2.90;;
3085;SDS011;52812;48.960;9.108;2023-05-07T11:47:31;3.80;;;3.00;;
3085;SDS011;52812;48.960;9.108;2023-05-07T11:50:02;3.53;;;3.23;;
3085;SDS011;52812;48.960;9.108;2023-05-07T11:52:29;3.20;;;2.90;;
3085;SDS011;52812;48.960;9.108;2023-05-07T11:54:56;5.30;;;3.30;;
3085;SDS011;52812;48.960;9.108;2023-05-07T11:57:26;4.23;;;3.10;;
3085;SDS011;52812;48.960;9.108;2023-05-07T11:59:53;2.90;;;2.70;;
3085;SDS011;52812;48.960;9.108;2023-05-07T12:02:19;3.60;;;3.30;;
3085;SDS011;52812;48.960;9.108;2023-05-07T12:04:44;3.47;;;3.17;;
3085;SDS011;52812;48.960;9.108;2023-05-07T12:07:16;2.97;;;2.60;;
3085;SDS011;52812;48.960;9.108;2023-05-07T12:09:43;4.67;;;3.27;;
3085;SDS011;52812;48.960;9.108;2023-05-07T12:12:09;3.33;;;2.80;;
3085;SDS011;52812;48.960;9.108;2023-05-07T12:14:39;3.40;;;3.10;;
3085;SDS011;52812;48.960;9.108;2023-05-07T12:17:08;2.77;;;2.53;;
3085;SDS011;52812;48.960;9.108;2023-05-07T12:19:35;3.23;;;2.93;;
3085;SDS011;52812;48.960;9.108;2023-05-07T12:22:02;3.70;;;3.40;;
3085;SDS011;52812;48.960;9.108;2023-05-07T12:24:28;4.73;;;3.20;;
3085;SDS011;52812;48.960;9.108;2023-05-07T12:26:54;3.77;;;2.83;;
3085;SDS011;52812;48.960;9.108;2023-05-07T12:29:22;2.80;;;2.50;;
3085;SDS011;52812;48.960;9.108;2023-05-07T12:31:49;2.83;;;2.63;;
3085;SDS011;52812;48.960;9.108;2023-05-07T12:34:15;4.90;;;3.03;;
3085;SDS011;52812;48.960;9.108;2023-05-07T12:36:41;3.10;;;2.80;;
3085;SDS011;52812;48.960;9.108;2023-05-07T12:39:07;3.40;;;3.10;;
3085;SDS011;52812;48.960;9.108;2023-05-07T12:41:51;3.07;;;2.80;;
3085;SDS011;52812;48.960;9.108;2023-05-07T12:44:19;3.00;;;2.70;;
3085;SDS011;52812;48.960;9.108;2023-05-07T12:46:47;3.93;;;3.20;;
3085;SDS011;52812;48.960;9.108;2023-05-07T12:49:13;3.33;;;3.07;;
3085;SDS011;52812;48.960;9.108;2023-05-07T12:51:38;3.77;;;3.47;;
3085;SDS011;52812;48.960;9.108;2023-05-07T12:54:04;3.00;;;2.70;;
3085;SDS011;52812;48.960;9.108;2023-05-07T12:56:35;2.93;;;2.73;;
3085;SDS011;52812;48.960;9.108;2023-05-07T12:59:01;3.50;;;2.70;;
3085;SDS011;52812;48.960;9.108;2023-05-07T13:01:30;2.70;;;2.50;;
3085;SDS011;52812;48.960;9.108;2023-05-07T13:03:57;3.90;;;3.60;;
3085;SDS011;52812;48.960;9.108;2023-05-07T13:06:26;3.20;;;2.90;;
3085;SDS011;52812;48.960;9.108;2023-05-07T13:08:51;3.00;;;2.80;;
3085;SDS011;52812;48.960;9.108;2023-05-07T13:11:17;2.90;;;2.70;;
3085;SDS011;52812;48.960;9.108;2023-05-07T13:13:42;3.03;;;2.80;;
3085;SDS011;52812;48.960;9.108;2023-05-07T13:16:09;3.10;;;2.80;;
3085;SDS011;52812;48.960;9.108;2023-05-07T13:18:36;3.50;;;3.20;;
3085;SDS011;52812;48.960;9.108;2023-05-07T13:21:03;3.70;;;3.40;;
3085;SDS011;52812;48.960;9.108;2023-05-07T13:23:29;3.93;;;3.53;;
3085;SDS011;52812;48.960;9.108;2023-05-07T13:25:55;3.97;;;3.60;;
3085;SDS011;52812;48.960;9.108;2023-05-07T13:28:21;3.40;;;3.00;;
3085;SDS011;52812;48.960;9.108;2023-05-07T13:30:47;3.77;;;3.27;;
3085;SDS011;52812;48.960;9.108;2023-05-07T13:33:13;4.40;;;2.80;;
3085;SDS011;52812;48.960;9.108;2023-05-07T13:35:38;3.00;;;2.70;;
3085;SDS011;52812;48.960;9.108;2023-05-07T13:38:04;2.90;;;2.70;;
3085;SDS011;52812;48.960;9.108;2023-05-07T13:40:30;2.50;;;2.30;;
3085;SDS011;52812;48.960;9.108;2023-05-07T13:42:59;3.10;;;2.40;;
3085;SDS011;52812;48.960;9.108;2023-05-07T13:45:27;2.47;;;2.23;;
3085;SDS011;52812;48.960;9.108;2023-05-07T13:47:54;1.80;;;1.70;;
3085;SDS011;52812;48.960;9.108;2023-05-07T13:50:20;1.80;;;1.70;;
3085;SDS011;52812;48.960;9.108;2023-05-07T13:52:46;1.40;;;1.30;;
3085;SDS011;52812;48.960;9.108;2023-05-07T13:55:16;1.90;;;1.80;;
3085;SDS011;52812;48.960;9.108;2023-05-07T13:57:45;3.67;;;1.93;;
3085;SDS011;52812;48.960;9.108;2023-05-07T14:00:12;2.27;;;1.90;;
3085;SDS011;52812;48.960;9.108;2023-05-07T14:02:38;2.50;;;1.87;;
3085;SDS011;52812;48.960;9.108;2023-05-07T14:05:05;1.90;;;1.70;;
3085;SDS011;52812;48.960;9.108;2023-05-07T14:07:31;4.07;;;2.20;;
3085;SDS011;52812;48.960;9.108;2023-05-07T14:09:57;2.40;;;2.20;;
3085;SDS011;52812;48.960;9.108;2023-05-07T14:12:22;2.70;;;1.90;;
3085;SDS011;52812;48.960;9.108;2023-05-07T14:14:48;2.40;;;2.20;;
3085;SDS011;52812;48.960;9.108;2023-05-07T14:17:15;2.37;;;2.17;;
3085;SDS011;52812;48.960;9.108;2023-05-07T14:19:41;3.83;;;2.33;;
3085;SDS011;52812;48.960;9.108;2023-05-07T14:22:07;2.70;;;2.50;;
3085;SDS011;52812;48.960;9.108;2023-05-07T14:24:33;3.17;;;2.70;;
3085;SDS011;52812;48.960;9.108;2023-05-07T14:26:58;3.00;;;2.73;;
3085;SDS011;52812;48.960;9.108;2023-05-07T14:29:24;4.90;;;2.97;;
3085;SDS011;52812;48.960;9.108;2023-05-07T14:31:50;3.50;;;2.80;;
3085;SDS011;52812;48.960;9.108;2023-05-07T14:34:15;3.67;;;3.30;;
3085;SDS011;52812;48.960;9.108;2023-05-07T14:36:41;4.03;;;3.17;;
3085;SDS011;52812;48.960;9.108;2023-05-07T14:39:06;4.17;;;3.10;;
3085;SDS011;52812;48.960;9.108;2023-05-07T14:41:32;3.50;;;2.77;;
3085;SDS011;52812;48.960;9.108;2023-05-07T14:43:58;4.10;;;2.83;;
3085;SDS011;52812;48.960;9.108;2023-05-07T14:46:24;3.97;;;3.57;;
3085;SDS011;52812;48.960;9.108;2023-05-07T14:48:49;4.40;;;3.40;;
3085;SDS011;52812;48.960;9.108;2023-05-07T14:51:15;6.37;;;3.07;;
3085;SDS011;52812;48.960;9.108;2023-05-07T14:53:41;3.20;;;2.87;;
3085;SDS011;52812;48.960;9.108;2023-05-07T14:56:07;3.37;;;2.93;;
3085;SDS011;52812;48.960;9.108;2023-05-07T14:58:33;4.87;;;3.10;;
3085;SDS011;52812;48.960;9.108;2023-05-07T15:00:59;3.67;;;3.07;;
3085;SDS011;52812;48.960;9.108;2023-05-07T15:03:25;3.40;;;2.90;;
3085;SDS011;52812;48.960;9.108;2023-05-07T15:05:51;3.40;;;3.10;;
3085;SDS011;52812;48.960;9.108;2023-05-07T15:08:17;3.23;;;2.93;;
3085;SDS011;52812;48.960;9.108;2023-05-07T15:10:43;3.80;;;3.40;;
3085;SDS011;52812;48.960;9.108;2023-05-07T15:13:09;3.87;;;3.20;;
3085;SDS011;52812;48.960;9.108;2023-05-07T15:15:36;3.80;;;3.20;;
3085;SDS011;52812;48.960;9.108;2023-05-07T15:18:02;4.80;;;3.60;;